sensor_id;sensor_type;location;lat;lon;timestamp;P1;durP1;ratioP1;P2;durP2;ratioP2
1887;SDS011;944;51.574;6.980;2023-07-20T00:01:00;10.17;;;4.53;;
1887;SDS011;944;51.574;6.980;2023-07-20T00:03:27;6.47;;;3.60;;
1887;SDS011;944;51.574;6.980;2023-07-20T00:05:54;8.03;;;3.97;;
1887;SDS011;944;51.574;6.980;2023-07-20T00:08:23;9.33;;;3.93;;
1887;SDS011;944;51.574;6.980;2023-07-20T00:10:50;4.87;;;4.17;;
1887;SDS011;944;51.574;6.980;2023-07-20T00:13:17;7.17;;;4.83;;
1887;SDS011;944;51.574;6.980;2023-07-20T00:15:46;6.90;;;4.27;;
1887;SDS011;944;51.574;6.980;2023-07-20T00:18:13;9.20;;;4.47;;
1887;SDS011;944;51.574;6.980;2023-07-20T00:20:40;12.10;;;5.07;;
1887;SDS011;944;51.574;6.980;2023-07-20T00:23:07;12.33;;;5.67;;
1887;SDS011;944;51.574;6.980;2023-07-20T00:25:36;8.83;;;4.97;;
1887;SDS011;944;51.574;6.980;2023-07-20T00:28:03;8.57;;;5.70;;
1887;SDS011;944;51.574;6.980;2023-07-20T00:30:30;7.73;;;4.50;;
1887;SDS011;944;51.574;6.980;2023-07-20T00:32:57;8.90;;;5.10;;
1887;SDS011;944;51.574;6.980;2023-07-20T00:35:24;5.63;;;4.50;;
1887;SDS011;944;51.574;6.980;2023-07-20T00:37:52;11.93;;;4.77;;
1887;SDS011;944;51.574;6.980;2023-07-20T00:40:19;7.77;;;5.30;;
1887;SDS011;944;51.574;6.980;2023-07-20T00:42:47;7.10;;;5.30;;
1887;SDS011;944;51.574;6.980;2023-07-20T00:45:14;6.27;;;5.10;;
1887;SDS011;944;51.574;6.980;2023-07-20T00:47:41;7.60;;;5.60;;
1887;SDS011;944;51.574;6.980;2023-07-20T00:50:08;12.57;;;5.40;;
1887;SDS011;944;51.574;6.980;2023-07-20T00:52:36;11.47;;;6.30;;
1887;SDS011;944;51.574;6.980;2023-07-20T00:55:05;14.10;;;5.83;;
1887;SDS011;944;51.574;6.980;2023-07-20T00:57:33;10.57;;;6.33;;
1887;SDS011;944;51.574;6.980;2023-07-20T01:00:02;13.93;;;6.27;;
1887;SDS011;944;51.574;6.980;2023-07-20T01:02:32;13.43;;;6.80;;
1887;SDS011;944;51.574;6.980;2023-07-20T01:04:59;9.27;;;6.10;;
1887;SDS011;944;51.574;6.980;2023-07-20T01:07:28;10.13;;;7.73;;
1887;SDS011;944;51.574;6.980;2023-07-20T01:10:02;11.13;;;7.07;;
1887;SDS011;944;51.574;6.980;2023-07-20T01:12:40;17.47;;;6.50;;
1887;SDS011;944;51.574;6.980;2023-07-20T01:15:13;11.40;;;7.23;;
1887;SDS011;944;51.574;6.980;2023-07-20T01:17:40;12.33;;;7.13;;
1887;SDS011;944;51.574;6.980;2023-07-20T01:20:09;10.37;;;7.50;;
1887;SDS011;944;51.574;6.980;2023-07-20T01:22:45;10.80;;;6.93;;
1887;SDS011;944;51.574;6.980;2023-07-20T01:25:42;11.43;;;6.90;;
1887;SDS011;944;51.574;6.980;2023-07-20T01:31:23;10.70;;;7.27;;
1887;SDS011;944;51.574;6.980;2023-07-20T01:33:52;12.73;;;8.40;;
1887;SDS011;944;51.574;6.980;2023-07-20T01:36:22;11.93;;;8.33;;
1887;SDS011;944;51.574;6.980;2023-07-20T01:38:51;15.23;;;7.93;;
1887;SDS011;944;51.574;6.980;2023-07-20T01:41:20;14.83;;;8.27;;
1887;SDS011;944;51.574;6.980;2023-07-20T01:43:47;17.23;;;9.20;;
1887;SDS011;944;51.574;6.980;2023-07-20T01:46:14;14.50;;;9.73;;
1887;SDS011;944;51.574;6.980;2023-07-20T01:48:43;12.67;;;7.90;;
1887;SDS011;944;51.574;6.980;2023-07-20T01:51:09;10.37;;;7.67;;
1887;SDS011;944;51.574;6.980;2023-07-20T01:53:37;13.73;;;7.10;;
1887;SDS011;944;51.574;6.980;2023-07-20T01:56:04;10.20;;;7.47;;
1887;SDS011;944;51.574;6.980;2023-07-20T01:58:31;9.70;;;7.33;;
1887;SDS011;944;51.574;6.980;2023-07-20T02:00:58;15.40;;;7.60;;
1887;SDS011;944;51.574;6.980;2023-07-20T02:03:24;15.50;;;7.70;;
1887;SDS011;944;51.574;6.980;2023-07-20T02:05:53;26.80;;;8.80;;
1887;SDS011;944;51.574;6.980;2023-07-20T02:08:20;15.60;;;8.70;;
1887;SDS011;944;51.574;6.980;2023-07-20T02:10:46;12.70;;;8.17;;
1887;SDS011;944;51.574;6.980;2023-07-20T02:13:14;15.90;;;8.53;;
1887;SDS011;944;51.574;6.980;2023-07-20T02:15:41;11.57;;;8.90;;
1887;SDS011;944;51.574;6.980;2023-07-20T02:18:08;14.30;;;8.80;;
1887;SDS011;944;51.574;6.980;2023-07-20T02:20:35;13.87;;;8.50;;
1887;SDS011;944;51.574;6.980;2023-07-20T02:23:03;24.60;;;9.50;;
1887;SDS011;944;51.574;6.980;2023-07-20T02:25:30;20.77;;;9.83;;
1887;SDS011;944;51.574;6.980;2023-07-20T02:27:57;15.53;;;9.60;;
1887;SDS011;944;51.574;6.980;2023-07-20T02:30:24;22.37;;;11.67;;
1887;SDS011;944;51.574;6.980;2023-07-20T02:32:53;16.03;;;11.00;;
1887;SDS011;944;51.574;6.980;2023-07-20T02:35:23;13.10;;;10.60;;
1887;SDS011;944;51.574;6.980;2023-07-20T02:37:51;19.93;;;12.33;;
1887;SDS011;944;51.574;6.980;2023-07-20T02:40:19;18.63;;;12.63;;
1887;SDS011;944;51.574;6.980;2023-07-20T02:42:46;20.87;;;13.10;;
1887;SDS011;944;51.574;6.980;2023-07-20T02:45:13;24.20;;;13.20;;
1887;SDS011;944;51.574;6.980;2023-07-20T02:47:41;26.30;;;14.50;;
1887;SDS011;944;51.574;6.980;2023-07-20T02:50:08;21.37;;;14.87;;
1887;SDS011;944;51.574;6.980;2023-07-20T02:52:36;24.63;;;15.40;;
1887;SDS011;944;51.574;6.980;2023-07-20T02:55:03;25.40;;;15.33;;
1887;SDS011;944;51.574;6.980;2023-07-20T02:57:32;25.20;;;15.17;;
1887;SDS011;944;51.574;6.980;2023-07-20T02:59:59;25.17;;;15.13;;
1887;SDS011;944;51.574;6.980;2023-07-20T03:02:26;24.83;;;17.80;;
1887;SDS011;944;51.574;6.980;2023-07-20T03:04:55;27.70;;;17.60;;
1887;SDS011;944;51.574;6.980;2023-07-20T03:07:26;28.07;;;17.20;;
1887;SDS011;944;51.574;6.980;2023-07-20T03:09:54;27.07;;;16.33;;
1887;SDS011;944;51.574;6.980;2023-07-20T03:12:21;27.90;;;18.00;;
1887;SDS011;944;51.574;6.980;2023-07-20T03:14:50;29.00;;;17.80;;
1887;SDS011;944;51.574;6.980;2023-07-20T03:17:17;28.27;;;18.13;;
1887;SDS011;944;51.574;6.980;2023-07-20T03:19:45;32.50;;;19.60;;
1887;SDS011;944;51.574;6.980;2023-07-20T03:22:12;36.43;;;20.27;;
1887;SDS011;944;51.574;6.980;2023-07-20T03:24:39;39.80;;;21.67;;
1887;SDS011;944;51.574;6.980;2023-07-20T03:27:06;41.93;;;24.10;;
1887;SDS011;944;51.574;6.980;2023-07-20T03:29:33;36.73;;;22.87;;
1887;SDS011;944;51.574;6.980;2023-07-20T03:32:01;39.27;;;23.33;;
1887;SDS011;944;51.574;6.980;2023-07-20T03:34:29;46.27;;;24.70;;
1887;SDS011;944;51.574;6.980;2023-07-20T03:36:56;45.27;;;22.70;;
1887;SDS011;944;51.574;6.980;2023-07-20T03:39:26;43.30;;;25.30;;
1887;SDS011;944;51.574;6.980;2023-07-20T03:41:53;39.80;;;23.33;;
1887;SDS011;944;51.574;6.980;2023-07-20T03:44:20;48.20;;;26.27;;
1887;SDS011;944;51.574;6.980;2023-07-20T03:46:47;38.07;;;24.43;;
1887;SDS011;944;51.574;6.980;2023-07-20T03:49:15;42.10;;;24.57;;
1887;SDS011;944;51.574;6.980;2023-07-20T03:51:43;52.20;;;26.20;;
1887;SDS011;944;51.574;6.980;2023-07-20T03:54:12;42.80;;;25.00;;
1887;SDS011;944;51.574;6.980;2023-07-20T03:56:39;41.03;;;23.60;;
1887;SDS011;944;51.574;6.980;2023-07-20T03:59:06;45.80;;;26.00;;
1887;SDS011;944;51.574;6.980;2023-07-20T04:01:32;44.33;;;24.40;;
1887;SDS011;944;51.574;6.980;2023-07-20T04:04:01;35.83;;;24.27;;
1887;SDS011;944;51.574;6.980;2023-07-20T04:06:33;37.80;;;24.90;;
1887;SDS011;944;51.574;6.980;2023-07-20T04:09:01;36.33;;;24.37;;
1887;SDS011;944;51.574;6.980;2023-07-20T04:11:29;37.00;;;22.30;;
1887;SDS011;944;51.574;6.980;2023-07-20T04:13:57;40.83;;;24.87;;
1887;SDS011;944;51.574;6.980;2023-07-20T04:16:24;31.50;;;21.93;;
1887;SDS011;944;51.574;6.980;2023-07-20T04:18:51;34.10;;;22.47;;
1887;SDS011;944;51.574;6.980;2023-07-20T04:21:18;36.93;;;22.23;;
1887;SDS011;944;51.574;6.980;2023-07-20T04:23:46;32.03;;;22.30;;
1887;SDS011;944;51.574;6.980;2023-07-20T04:26:13;34.07;;;22.73;;
1887;SDS011;944;51.574;6.980;2023-07-20T04:28:40;36.00;;;22.83;;
1887;SDS011;944;51.574;6.980;2023-07-20T04:31:11;35.53;;;21.13;;
1887;SDS011;944;51.574;6.980;2023-07-20T04:33:39;25.73;;;20.03;;
1887;SDS011;944;51.574;6.980;2023-07-20T04:36:06;32.60;;;20.23;;
1887;SDS011;944;51.574;6.980;2023-07-20T04:45:17;26.43;;;18.43;;
1887;SDS011;944;51.574;6.980;2023-07-20T04:48:10;25.00;;;18.23;;
1887;SDS011;944;51.574;6.980;2023-07-20T04:51:05;23.37;;;18.47;;
1887;SDS011;944;51.574;6.980;2023-07-20T04:53:34;23.03;;;17.10;;
1887;SDS011;944;51.574;6.980;2023-07-20T04:56:20;19.60;;;16.10;;
1887;SDS011;944;51.574;6.980;2023-07-20T05:03:07;17.83;;;13.93;;
1887;SDS011;944;51.574;6.980;2023-07-20T05:05:34;15.97;;;12.90;;
1887;SDS011;944;51.574;6.980;2023-07-20T05:08:02;22.27;;;12.07;;
1887;SDS011;944;51.574;6.980;2023-07-20T05:11:34;16.23;;;12.60;;
1887;SDS011;944;51.574;6.980;2023-07-20T05:17:48;15.17;;;11.53;;
1887;SDS011;944;51.574;6.980;2023-07-20T05:24:09;12.33;;;10.97;;
1887;SDS011;944;51.574;6.980;2023-07-20T05:26:37;13.17;;;11.07;;
1887;SDS011;944;51.574;6.980;2023-07-20T05:29:04;16.17;;;10.93;;
1887;SDS011;944;51.574;6.980;2023-07-20T05:34:55;11.30;;;10.03;;
1887;SDS011;944;51.574;6.980;2023-07-20T05:37:22;11.93;;;10.63;;
1887;SDS011;944;51.574;6.980;2023-07-20T05:43:39;16.83;;;9.53;;
1887;SDS011;944;51.574;6.980;2023-07-20T05:46:07;11.50;;;9.23;;
1887;SDS011;944;51.574;6.980;2023-07-20T05:48:34;14.17;;;10.20;;
1887;SDS011;944;51.574;6.980;2023-07-20T05:54:44;8.37;;;7.53;;
1887;SDS011;944;51.574;6.980;2023-07-20T06:01:10;6.07;;;5.57;;
1887;SDS011;944;51.574;6.980;2023-07-20T06:03:38;4.37;;;3.97;;
1887;SDS011;944;51.574;6.980;2023-07-20T06:06:23;4.37;;;3.97;;
1887;SDS011;944;51.574;6.980;2023-07-20T06:09:07;4.60;;;4.20;;
1887;SDS011;944;51.574;6.980;2023-07-20T06:15:26;4.83;;;3.67;;
1887;SDS011;944;51.574;6.980;2023-07-20T06:18:28;4.97;;;3.57;;
1887;SDS011;944;51.574;6.980;2023-07-20T06:21:31;3.80;;;3.50;;
1887;SDS011;944;51.574;6.980;2023-07-20T06:28:12;4.13;;;3.43;;
1887;SDS011;944;51.574;6.980;2023-07-20T06:37:38;3.30;;;3.00;;
1887;SDS011;944;51.574;6.980;2023-07-20T06:40:26;11.23;;;8.67;;
1887;SDS011;944;51.574;6.980;2023-07-20T06:43:09;10.50;;;4.23;;
1887;SDS011;944;51.574;6.980;2023-07-20T06:46:04;3.67;;;3.37;;
1887;SDS011;944;51.574;6.980;2023-07-20T06:49:06;5.50;;;4.70;;
1887;SDS011;944;51.574;6.980;2023-07-20T06:52:33;4.30;;;3.33;;
1887;SDS011;944;51.574;6.980;2023-07-20T06:55:03;3.43;;;3.13;;
1887;SDS011;944;51.574;6.980;2023-07-20T06:57:33;3.80;;;3.50;;
1887;SDS011;944;51.574;6.980;2023-07-20T07:00:19;2.03;;;1.83;;
1887;SDS011;944;51.574;6.980;2023-07-20T07:02:47;1.80;;;1.70;;
1887;SDS011;944;51.574;6.980;2023-07-20T07:05:13;2.30;;;2.07;;
1887;SDS011;944;51.574;6.980;2023-07-20T07:07:40;4.00;;;3.60;;
1887;SDS011;944;51.574;6.980;2023-07-20T07:10:09;8.80;;;2.20;;
1887;SDS011;944;51.574;6.980;2023-07-20T07:12:36;3.37;;;3.13;;
1887;SDS011;944;51.574;6.980;2023-07-20T07:15:03;4.43;;;3.93;;
1887;SDS011;944;51.574;6.980;2023-07-20T07:17:34;3.40;;;3.10;;
1887;SDS011;944;51.574;6.980;2023-07-20T07:20:01;3.83;;;3.37;;
1887;SDS011;944;51.574;6.980;2023-07-20T07:22:29;3.10;;;2.90;;
1887;SDS011;944;51.574;6.980;2023-07-20T07:24:56;3.40;;;3.10;;
1887;SDS011;944;51.574;6.980;2023-07-20T07:27:25;3.43;;;2.50;;
1887;SDS011;944;51.574;6.980;2023-07-20T07:29:52;2.50;;;2.30;;
1887;SDS011;944;51.574;6.980;2023-07-20T07:32:20;2.50;;;1.90;;
1887;SDS011;944;51.574;6.980;2023-07-20T07:34:47;1.73;;;1.63;;
1887;SDS011;944;51.574;6.980;2023-07-20T07:37:16;4.77;;;2.30;;
1887;SDS011;944;51.574;6.980;2023-07-20T07:39:44;2.43;;;2.10;;
1887;SDS011;944;51.574;6.980;2023-07-20T07:42:11;1.80;;;1.70;;
1887;SDS011;944;51.574;6.980;2023-07-20T07:44:40;1.83;;;1.73;;
1887;SDS011;944;51.574;6.980;2023-07-20T07:47:07;2.67;;;1.70;;
1887;SDS011;944;51.574;6.980;2023-07-20T07:49:34;2.67;;;2.47;;
1887;SDS011;944;51.574;6.980;2023-07-20T07:52:11;3.87;;;2.80;;
1887;SDS011;944;51.574;6.980;2023-07-20T07:54:39;9.73;;;2.10;;
1887;SDS011;944;51.574;6.980;2023-07-20T07:57:06;2.10;;;2.00;;
1887;SDS011;944;51.574;6.980;2023-07-20T07:59:33;2.60;;;2.20;;
1887;SDS011;944;51.574;6.980;2023-07-20T08:02:05;12.23;;;2.57;;
1887;SDS011;944;51.574;6.980;2023-07-20T08:04:37;3.27;;;2.20;;
1887;SDS011;944;51.574;6.980;2023-07-20T08:21:00;1.97;;;1.80;;
1887;SDS011;944;51.574;6.980;2023-07-20T08:23:27;2.60;;;2.10;;
1887;SDS011;944;51.574;6.980;2023-07-20T08:25:54;4.53;;;1.87;;
1887;SDS011;944;51.574;6.980;2023-07-20T08:28:21;3.83;;;1.77;;
1887;SDS011;944;51.574;6.980;2023-07-20T08:30:48;2.03;;;1.77;;
1887;SDS011;944;51.574;6.980;2023-07-20T08:33:16;9.97;;;1.60;;
1887;SDS011;944;51.574;6.980;2023-07-20T08:35:46;2.50;;;2.20;;
1887;SDS011;944;51.574;6.980;2023-07-20T08:41:23;2.20;;;2.00;;
1887;SDS011;944;51.574;6.980;2023-07-20T08:43:50;1.90;;;1.80;;
1887;SDS011;944;51.574;6.980;2023-07-20T08:46:21;2.20;;;2.10;;
1887;SDS011;944;51.574;6.980;2023-07-20T08:48:49;1.70;;;1.60;;
1887;SDS011;944;51.574;6.980;2023-07-20T08:51:18;1.60;;;1.50;;
1887;SDS011;944;51.574;6.980;2023-07-20T08:53:47;1.67;;;1.57;;
1887;SDS011;944;51.574;6.980;2023-07-20T08:56:16;1.73;;;1.60;;
1887;SDS011;944;51.574;6.980;2023-07-20T08:58:46;6.10;;;1.30;;
1887;SDS011;944;51.574;6.980;2023-07-20T09:01:13;1.93;;;1.70;;
1887;SDS011;944;51.574;6.980;2023-07-20T09:03:41;4.33;;;1.20;;
1887;SDS011;944;51.574;6.980;2023-07-20T09:06:09;1.70;;;1.47;;
1887;SDS011;944;51.574;6.980;2023-07-20T09:08:39;2.43;;;1.27;;
1887;SDS011;944;51.574;6.980;2023-07-20T09:11:06;2.03;;;1.23;;
1887;SDS011;944;51.574;6.980;2023-07-20T09:13:38;1.57;;;1.40;;
1887;SDS011;944;51.574;6.980;2023-07-20T09:16:05;1.47;;;1.37;;
1887;SDS011;944;51.574;6.980;2023-07-20T09:18:32;1.20;;;1.10;;
1887;SDS011;944;51.574;6.980;2023-07-20T09:21:01;2.40;;;1.00;;
1887;SDS011;944;51.574;6.980;2023-07-20T09:23:30;8.10;;;1.20;;
1887;SDS011;944;51.574;6.980;2023-07-20T09:26:00;2.90;;;1.00;;
1887;SDS011;944;51.574;6.980;2023-07-20T09:28:39;3.20;;;1.70;;
1887;SDS011;944;51.574;6.980;2023-07-20T09:35:34;1.50;;;1.40;;
1887;SDS011;944;51.574;6.980;2023-07-20T09:45:20;3.03;;;1.40;;
1887;SDS011;944;51.574;6.980;2023-07-20T09:48:00;2.90;;;1.67;;
1887;SDS011;944;51.574;6.980;2023-07-20T10:50:46;1.17;;;0.90;;
1887;SDS011;944;51.574;6.980;2023-07-20T10:53:38;1.47;;;1.03;;
1887;SDS011;944;51.574;6.980;2023-07-20T10:56:08;1.47;;;1.10;;
1887;SDS011;944;51.574;6.980;2023-07-20T10:58:41;1.83;;;1.10;;
1887;SDS011;944;51.574;6.980;2023-07-20T11:01:10;1.20;;;1.10;;
1887;SDS011;944;51.574;6.980;2023-07-20T11:03:40;6.23;;;1.23;;
1887;SDS011;944;51.574;6.980;2023-07-20T11:12:40;1.37;;;1.00;;
1887;SDS011;944;51.574;6.980;2023-07-20T11:15:08;2.40;;;1.30;;
1887;SDS011;944;51.574;6.980;2023-07-20T11:17:38;3.37;;;2.37;;
1887;SDS011;944;51.574;6.980;2023-07-20T11:20:13;1.40;;;1.20;;
1887;SDS011;944;51.574;6.980;2023-07-20T11:22:43;2.87;;;1.20;;
1887;SDS011;944;51.574;6.980;2023-07-20T11:25:16;1.20;;;1.10;;
1887;SDS011;944;51.574;6.980;2023-07-20T11:27:44;7.60;;;1.20;;
1887;SDS011;944;51.574;6.980;2023-07-20T11:30:15;2.90;;;1.00;;
1887;SDS011;944;51.574;6.980;2023-07-20T11:32:47;1.43;;;0.90;;
1887;SDS011;944;51.574;6.980;2023-07-20T11:35:14;1.93;;;1.00;;
1887;SDS011;944;51.574;6.980;2023-07-20T11:37:41;1.70;;;1.60;;
1887;SDS011;944;51.574;6.980;2023-07-20T11:40:10;1.20;;;1.10;;
1887;SDS011;944;51.574;6.980;2023-07-20T11:42:38;5.07;;;1.40;;
1887;SDS011;944;51.574;6.980;2023-07-20T11:45:06;1.60;;;1.33;;
1887;SDS011;944;51.574;6.980;2023-07-20T11:47:39;3.50;;;3.20;;
1887;SDS011;944;51.574;6.980;2023-07-20T11:50:07;1.40;;;1.30;;
1887;SDS011;944;51.574;6.980;2023-07-20T11:52:44;0.97;;;0.97;;
1887;SDS011;944;51.574;6.980;2023-07-20T11:55:55;1.30;;;1.30;;
1887;SDS011;944;51.574;6.980;2023-07-20T11:58:35;0.80;;;0.80;;
1887;SDS011;944;51.574;6.980;2023-07-20T12:01:20;2.40;;;1.53;;
1887;SDS011;944;51.574;6.980;2023-07-20T12:04:16;1.10;;;1.03;;
1887;SDS011;944;51.574;6.980;2023-07-20T12:32:08;1.07;;;0.97;;
1887;SDS011;944;51.574;6.980;2023-07-20T12:34:35;1.00;;;0.90;;
1887;SDS011;944;51.574;6.980;2023-07-20T12:37:06;1.20;;;1.10;;
1887;SDS011;944;51.574;6.980;2023-07-20T12:43:51;1.30;;;1.20;;
1887;SDS011;944;51.574;6.980;2023-07-20T12:46:29;1.20;;;1.10;;
1887;SDS011;944;51.574;6.980;2023-07-20T12:49:01;1.73;;;1.13;;
1887;SDS011;944;51.574;6.980;2023-07-20T12:51:51;4.07;;;1.33;;
1887;SDS011;944;51.574;6.980;2023-07-20T12:57:54;1.33;;;1.23;;
1887;SDS011;944;51.574;6.980;2023-07-20T13:00:21;4.07;;;2.90;;
1887;SDS011;944;51.574;6.980;2023-07-20T13:03:03;1.60;;;1.50;;
1887;SDS011;944;51.574;6.980;2023-07-20T13:05:31;1.20;;;1.10;;
1887;SDS011;944;51.574;6.980;2023-07-20T13:07:58;1.50;;;1.03;;
1887;SDS011;944;51.574;6.980;2023-07-20T13:10:25;1.00;;;0.80;;
1887;SDS011;944;51.574;6.980;2023-07-20T13:12:53;1.00;;;1.00;;
1887;SDS011;944;51.574;6.980;2023-07-20T13:15:19;1.13;;;1.00;;
1887;SDS011;944;51.574;6.980;2023-07-20T13:17:46;1.10;;;0.90;;
1887;SDS011;944;51.574;6.980;2023-07-20T13:20:15;1.70;;;1.60;;
1887;SDS011;944;51.574;6.980;2023-07-20T13:22:44;1.27;;;1.10;;
1887;SDS011;944;51.574;6.980;2023-07-20T13:25:11;2.00;;;1.30;;
1887;SDS011;944;51.574;6.980;2023-07-20T13:27:38;5.03;;;1.40;;
1887;SDS011;944;51.574;6.980;2023-07-20T13:30:05;1.40;;;1.30;;
1887;SDS011;944;51.574;6.980;2023-07-20T13:32:35;3.13;;;0.90;;
1887;SDS011;944;51.574;6.980;2023-07-20T13:35:03;1.23;;;1.13;;
1887;SDS011;944;51.574;6.980;2023-07-20T13:37:32;1.27;;;1.17;;
1887;SDS011;944;51.574;6.980;2023-07-20T13:43:39;1.87;;;1.60;;
1887;SDS011;944;51.574;6.980;2023-07-20T13:46:07;1.20;;;1.00;;
1887;SDS011;944;51.574;6.980;2023-07-20T13:48:33;3.67;;;1.77;;
1887;SDS011;944;51.574;6.980;2023-07-20T13:51:00;1.77;;;1.40;;
1887;SDS011;944;51.574;6.980;2023-07-20T13:53:31;2.47;;;1.00;;
1887;SDS011;944;51.574;6.980;2023-07-20T13:55:58;1.70;;;1.30;;
1887;SDS011;944;51.574;6.980;2023-07-20T13:58:29;1.40;;;1.30;;
1887;SDS011;944;51.574;6.980;2023-07-20T14:00:56;1.50;;;1.30;;
1887;SDS011;944;51.574;6.980;2023-07-20T14:03:23;2.23;;;1.23;;
1887;SDS011;944;51.574;6.980;2023-07-20T14:05:50;1.47;;;1.30;;
1887;SDS011;944;51.574;6.980;2023-07-20T14:08:17;1.10;;;1.00;;
1887;SDS011;944;51.574;6.980;2023-07-20T14:10:45;1.80;;;1.40;;
1887;SDS011;944;51.574;6.980;2023-07-20T14:13:12;1.10;;;1.03;;
1887;SDS011;944;51.574;6.980;2023-07-20T14:15:40;4.13;;;1.13;;
1887;SDS011;944;51.574;6.980;2023-07-20T14:18:07;1.00;;;1.00;;
1887;SDS011;944;51.574;6.980;2023-07-20T14:20:37;2.23;;;1.20;;
1887;SDS011;944;51.574;6.980;2023-07-20T14:23:13;1.57;;;1.00;;
1887;SDS011;944;51.574;6.980;2023-07-20T14:25:40;10.13;;;1.90;;
1887;SDS011;944;51.574;6.980;2023-07-20T14:28:10;3.07;;;0.90;;
1887;SDS011;944;51.574;6.980;2023-07-20T14:30:37;1.30;;;1.00;;
1887;SDS011;944;51.574;6.980;2023-07-20T14:33:05;1.83;;;1.20;;
1887;SDS011;944;51.574;6.980;2023-07-20T14:39:12;3.00;;;1.70;;
1887;SDS011;944;51.574;6.980;2023-07-20T14:41:39;2.10;;;1.17;;
1887;SDS011;944;51.574;6.980;2023-07-20T14:44:08;2.13;;;1.20;;
1887;SDS011;944;51.574;6.980;2023-07-20T14:46:35;0.93;;;0.93;;
1887;SDS011;944;51.574;6.980;2023-07-20T14:49:02;1.03;;;0.97;;
1887;SDS011;944;51.574;6.980;2023-07-20T14:51:29;1.53;;;1.00;;
1887;SDS011;944;51.574;6.980;2023-07-20T14:57:39;1.00;;;1.00;;
1887;SDS011;944;51.574;6.980;2023-07-20T15:00:08;1.93;;;1.10;;
1887;SDS011;944;51.574;6.980;2023-07-20T15:02:36;4.37;;;1.50;;
1887;SDS011;944;51.574;6.980;2023-07-20T15:05:06;4.97;;;1.20;;
1887;SDS011;944;51.574;6.980;2023-07-20T15:07:34;0.97;;;0.97;;
1887;SDS011;944;51.574;6.980;2023-07-20T15:10:03;1.37;;;1.20;;
1887;SDS011;944;51.574;6.980;2023-07-20T15:12:36;1.10;;;1.00;;
1887;SDS011;944;51.574;6.980;2023-07-20T15:15:04;1.03;;;1.03;;
1887;SDS011;944;51.574;6.980;2023-07-20T15:17:35;1.17;;;1.03;;
1887;SDS011;944;51.574;6.980;2023-07-20T15:20:03;2.50;;;1.17;;
1887;SDS011;944;51.574;6.980;2023-07-20T15:22:32;1.80;;;1.53;;
1887;SDS011;944;51.574;6.980;2023-07-20T15:25:01;1.00;;;1.00;;
1887;SDS011;944;51.574;6.980;2023-07-20T15:27:29;2.97;;;1.17;;
1887;SDS011;944;51.574;6.980;2023-07-20T15:29:56;3.10;;;1.13;;
1887;SDS011;944;51.574;6.980;2023-07-20T15:32:25;1.63;;;1.10;;
1887;SDS011;944;51.574;6.980;2023-07-20T15:34:52;2.27;;;1.60;;
1887;SDS011;944;51.574;6.980;2023-07-20T15:37:19;1.30;;;1.20;;
1887;SDS011;944;51.574;6.980;2023-07-20T15:39:47;2.50;;;1.60;;
1887;SDS011;944;51.574;6.980;2023-07-20T15:42:15;1.30;;;1.20;;
1887;SDS011;944;51.574;6.980;2023-07-20T15:44:42;1.43;;;1.17;;
1887;SDS011;944;51.574;6.980;2023-07-20T15:47:09;2.73;;;1.23;;
1887;SDS011;944;51.574;6.980;2023-07-20T15:49:38;1.07;;;1.07;;
1887;SDS011;944;51.574;6.980;2023-07-20T15:52:05;1.47;;;1.37;;
1887;SDS011;944;51.574;6.980;2023-07-20T15:54:36;1.10;;;1.10;;
1887;SDS011;944;51.574;6.980;2023-07-20T15:57:03;1.10;;;1.10;;
1887;SDS011;944;51.574;6.980;2023-07-20T15:59:31;3.37;;;1.20;;
1887;SDS011;944;51.574;6.980;2023-07-20T16:01:58;3.40;;;1.60;;
1887;SDS011;944;51.574;6.980;2023-07-20T16:04:25;5.80;;;1.40;;
1887;SDS011;944;51.574;6.980;2023-07-20T16:06:53;3.07;;;1.10;;
1887;SDS011;944;51.574;6.980;2023-07-20T16:09:26;1.30;;;1.30;;
1887;SDS011;944;51.574;6.980;2023-07-20T16:11:53;1.20;;;1.20;;
1887;SDS011;944;51.574;6.980;2023-07-20T16:14:20;1.40;;;1.30;;
1887;SDS011;944;51.574;6.980;2023-07-20T16:16:47;1.47;;;1.10;;
1887;SDS011;944;51.574;6.980;2023-07-20T16:19:15;1.20;;;1.20;;
1887;SDS011;944;51.574;6.980;2023-07-20T16:21:59;2.77;;;1.10;;
1887;SDS011;944;51.574;6.980;2023-07-20T16:24:26;1.87;;;1.30;;
1887;SDS011;944;51.574;6.980;2023-07-20T16:27:08;4.87;;;2.47;;
1887;SDS011;944;51.574;6.980;2023-07-20T16:29:56;3.20;;;1.23;;
1887;SDS011;944;51.574;6.980;2023-07-20T16:36:14;1.07;;;1.00;;
1887;SDS011;944;51.574;6.980;2023-07-20T16:38:45;3.80;;;1.13;;
1887;SDS011;944;51.574;6.980;2023-07-20T16:41:13;1.53;;;1.20;;
1887;SDS011;944;51.574;6.980;2023-07-20T16:43:42;1.40;;;1.30;;
1887;SDS011;944;51.574;6.980;2023-07-20T16:46:10;1.73;;;1.10;;
1887;SDS011;944;51.574;6.980;2023-07-20T16:48:38;1.30;;;1.20;;
1887;SDS011;944;51.574;6.980;2023-07-20T16:51:11;1.33;;;1.23;;
1887;SDS011;944;51.574;6.980;2023-07-20T16:53:41;4.10;;;2.80;;
1887;SDS011;944;51.574;6.980;2023-07-20T16:56:15;1.30;;;1.23;;
1887;SDS011;944;51.574;6.980;2023-07-20T16:58:42;1.43;;;1.13;;
1887;SDS011;944;51.574;6.980;2023-07-20T17:01:10;3.27;;;1.63;;
1887;SDS011;944;51.574;6.980;2023-07-20T17:03:37;5.53;;;3.70;;
1887;SDS011;944;51.574;6.980;2023-07-20T17:06:04;2.10;;;1.30;;
1887;SDS011;944;51.574;6.980;2023-07-20T17:08:33;1.37;;;1.13;;
1887;SDS011;944;51.574;6.980;2023-07-20T17:11:04;1.77;;;1.53;;
1887;SDS011;944;51.574;6.980;2023-07-20T17:13:37;7.03;;;6.33;;
1887;SDS011;944;51.574;6.980;2023-07-20T17:16:04;2.00;;;1.27;;
1887;SDS011;944;51.574;6.980;2023-07-20T17:18:33;8.20;;;1.63;;
1887;SDS011;944;51.574;6.980;2023-07-20T17:21:04;2.77;;;1.77;;
1887;SDS011;944;51.574;6.980;2023-07-20T17:23:34;1.03;;;1.00;;
1887;SDS011;944;51.574;6.980;2023-07-20T17:26:04;1.60;;;1.50;;
1887;SDS011;944;51.574;6.980;2023-07-20T17:28:37;2.37;;;1.33;;
1887;SDS011;944;51.574;6.980;2023-07-20T17:31:05;1.73;;;1.30;;
1887;SDS011;944;51.574;6.980;2023-07-20T17:33:35;1.00;;;1.00;;
1887;SDS011;944;51.574;6.980;2023-07-20T17:36:05;2.10;;;1.13;;
1887;SDS011;944;51.574;6.980;2023-07-20T17:38:50;2.37;;;1.37;;
1887;SDS011;944;51.574;6.980;2023-07-20T17:41:17;1.47;;;1.37;;
1887;SDS011;944;51.574;6.980;2023-07-20T17:43:46;1.73;;;1.47;;
1887;SDS011;944;51.574;6.980;2023-07-20T17:46:15;1.47;;;1.37;;
1887;SDS011;944;51.574;6.980;2023-07-20T17:48:42;2.07;;;1.23;;
1887;SDS011;944;51.574;6.980;2023-07-20T17:51:09;1.50;;;1.40;;
1887;SDS011;944;51.574;6.980;2023-07-20T17:53:36;4.70;;;1.83;;
1887;SDS011;944;51.574;6.980;2023-07-20T17:56:03;1.30;;;1.20;;
1887;SDS011;944;51.574;6.980;2023-07-20T17:58:30;2.73;;;1.23;;
1887;SDS011;944;51.574;6.980;2023-07-20T18:01:00;1.47;;;1.20;;
1887;SDS011;944;51.574;6.980;2023-07-20T18:03:27;5.17;;;1.60;;
1887;SDS011;944;51.574;6.980;2023-07-20T18:05:54;1.40;;;1.30;;
1887;SDS011;944;51.574;6.980;2023-07-20T18:08:21;3.90;;;1.60;;
1887;SDS011;944;51.574;6.980;2023-07-20T18:10:50;2.00;;;1.80;;
1887;SDS011;944;51.574;6.980;2023-07-20T18:13:17;3.03;;;1.60;;
1887;SDS011;944;51.574;6.980;2023-07-20T18:15:44;1.20;;;1.20;;
1887;SDS011;944;51.574;6.980;2023-07-20T18:18:12;3.80;;;1.40;;
1887;SDS011;944;51.574;6.980;2023-07-20T18:20:39;1.50;;;1.40;;
1887;SDS011;944;51.574;6.980;2023-07-20T18:23:09;1.67;;;1.57;;
1887;SDS011;944;51.574;6.980;2023-07-20T18:25:36;2.10;;;1.50;;
1887;SDS011;944;51.574;6.980;2023-07-20T18:28:08;1.90;;;1.80;;
1887;SDS011;944;51.574;6.980;2023-07-20T18:30:35;2.17;;;1.30;;
1887;SDS011;944;51.574;6.980;2023-07-20T18:33:02;1.93;;;1.67;;
1887;SDS011;944;51.574;6.980;2023-07-20T18:35:30;3.97;;;1.53;;
1887;SDS011;944;51.574;6.980;2023-07-20T18:37:59;1.50;;;1.40;;
1887;SDS011;944;51.574;6.980;2023-07-20T18:40:31;1.30;;;1.20;;
1887;SDS011;944;51.574;6.980;2023-07-20T18:42:58;1.60;;;1.40;;
1887;SDS011;944;51.574;6.980;2023-07-20T18:45:29;3.17;;;1.57;;
1887;SDS011;944;51.574;6.980;2023-07-20T18:47:56;5.13;;;1.57;;
1887;SDS011;944;51.574;6.980;2023-07-20T18:50:23;12.27;;;5.10;;
1887;SDS011;944;51.574;6.980;2023-07-20T18:52:51;6.93;;;4.13;;
1887;SDS011;944;51.574;6.980;2023-07-20T18:55:18;3.83;;;2.50;;